sensor_id;sensor_type;location;lat;lon;timestamp;P1;durP1;ratioP1;P2;durP2;ratioP2
17773;SDS011;9011;33.236;-97.118;2023-08-01T00:01:38;9.52;;;4.07;;
17773;SDS011;9011;33.236;-97.118;2023-08-01T00:04:08;8.23;;;4.13;;
17773;SDS011;9011;33.236;-97.118;2023-08-01T00:06:37;7.25;;;4.40;;
17773;SDS011;9011;33.236;-97.118;2023-08-01T00:09:05;6.07;;;3.88;;
17773;SDS011;9011;33.236;-97.118;2023-08-01T00:11:33;8.20;;;4.30;;
17773;SDS011;9011;33.236;-97.118;2023-08-01T00:14:03;9.13;;;4.20;;
17773;SDS011;9011;33.236;-97.118;2023-08-01T00:16:32;4.78;;;3.65;;
17773;SDS011;9011;33.236;-97.118;2023-08-01T00:19:03;6.70;;;4.20;;
17773;SDS011;9011;33.236;-97.118;2023-08-01T00:21:31;8.73;;;4.40;;
17773;SDS011;9011;33.236;-97.118;2023-08-01T00:24:00;7.70;;;4.25;;
17773;SDS011;9011;33.236;-97.118;2023-08-01T00:26:29;8.18;;;4.72;;
17773;SDS011;9011;33.236;-97.118;2023-08-01T00:28:58;12.73;;;4.72;;
17773;SDS011;9011;33.236;-97.118;2023-08-01T00:31:27;8.63;;;4.80;;
17773;SDS011;9011;33.236;-97.118;2023-08-01T00:33:56;9.00;;;4.72;;
17773;SDS011;9011;33.236;-97.118;2023-08-01T00:36:29;8.27;;;4.38;;
17773;SDS011;9011;33.236;-97.118;2023-08-01T00:38:57;11.05;;;4.68;;
17773;SDS011;9011;33.236;-97.118;2023-08-01T00:41:28;8.07;;;3.78;;
17773;SDS011;9011;33.236;-97.118;2023-08-01T00:43:56;5.93;;;3.72;;
17773;SDS011;9011;33.236;-97.118;2023-08-01T00:46:31;7.90;;;3.92;;
17773;SDS011;9011;33.236;-97.118;2023-08-01T00:49:00;7.95;;;4.32;;
17773;SDS011;9011;33.236;-97.118;2023-08-01T00:51:29;11.48;;;4.00;;
17773;SDS011;9011;33.236;-97.118;2023-08-01T00:53:59;7.72;;;4.93;;
17773;SDS011;9011;33.236;-97.118;2023-08-01T00:56:31;8.15;;;4.90;;
17773;SDS011;9011;33.236;-97.118;2023-08-01T00:59:02;7.15;;;4.10;;
17773;SDS011;9011;33.236;-97.118;2023-08-01T01:01:33;9.02;;;4.28;;
17773;SDS011;9011;33.236;-97.118;2023-08-01T01:04:02;8.23;;;4.30;;
17773;SDS011;9011;33.236;-97.118;2023-08-01T01:06:38;7.07;;;3.95;;
17773;SDS011;9011;33.236;-97.118;2023-08-01T01:09:22;8.82;;;4.00;;
17773;SDS011;9011;33.236;-97.118;2023-08-01T01:11:51;9.63;;;4.43;;
17773;SDS011;9011;33.236;-97.118;2023-08-01T01:14:23;7.72;;;4.60;;
17773;SDS011;9011;33.236;-97.118;2023-08-01T01:16:53;8.95;;;5.03;;
17773;SDS011;9011;33.236;-97.118;2023-08-01T01:19:22;6.18;;;4.13;;
17773;SDS011;9011;33.236;-97.118;2023-08-01T01:21:52;10.80;;;4.32;;
17773;SDS011;9011;33.236;-97.118;2023-08-01T01:24:21;10.52;;;4.50;;
17773;SDS011;9011;33.236;-97.118;2023-08-01T01:26:49;8.15;;;4.03;;
17773;SDS011;9011;33.236;-97.118;2023-08-01T01:29:19;8.02;;;4.22;;
17773;SDS011;9011;33.236;-97.118;2023-08-01T01:31:50;9.10;;;4.60;;
17773;SDS011;9011;33.236;-97.118;2023-08-01T01:34:20;6.88;;;4.30;;
17773;SDS011;9011;33.236;-97.118;2023-08-01T01:36:49;7.32;;;4.57;;
17773;SDS011;9011;33.236;-97.118;2023-08-01T01:39:19;6.85;;;3.85;;
17773;SDS011;9011;33.236;-97.118;2023-08-01T01:41:48;6.43;;;4.10;;
17773;SDS011;9011;33.236;-97.118;2023-08-01T01:44:16;8.65;;;4.80;;
17773;SDS011;9011;33.236;-97.118;2023-08-01T01:46:45;8.25;;;3.85;;
17773;SDS011;9011;33.236;-97.118;2023-08-01T01:49:15;9.52;;;4.95;;
17773;SDS011;9011;33.236;-97.118;2023-08-01T01:51:44;11.38;;;4.68;;
17773;SDS011;9011;33.236;-97.118;2023-08-01T01:54:13;8.60;;;4.45;;
17773;SDS011;9011;33.236;-97.118;2023-08-01T01:56:42;7.88;;;4.15;;
17773;SDS011;9011;33.236;-97.118;2023-08-01T01:59:10;9.00;;;4.65;;
17773;SDS011;9011;33.236;-97.118;2023-08-01T02:01:39;10.60;;;4.95;;
17773;SDS011;9011;33.236;-97.118;2023-08-01T02:04:07;8.68;;;4.65;;
17773;SDS011;9011;33.236;-97.118;2023-08-01T02:06:35;12.15;;;4.63;;
17773;SDS011;9011;33.236;-97.118;2023-08-01T02:09:04;8.75;;;4.95;;
17773;SDS011;9011;33.236;-97.118;2023-08-01T02:11:34;7.97;;;4.82;;
17773;SDS011;9011;33.236;-97.118;2023-08-01T02:14:02;6.18;;;3.83;;
17773;SDS011;9011;33.236;-97.118;2023-08-01T02:16:30;10.00;;;4.68;;
17773;SDS011;9011;33.236;-97.118;2023-08-01T02:19:00;9.40;;;4.22;;
17773;SDS011;9011;33.236;-97.118;2023-08-01T02:21:28;6.28;;;5.03;;
17773;SDS011;9011;33.236;-97.118;2023-08-01T02:23:56;10.55;;;5.03;;
17773;SDS011;9011;33.236;-97.118;2023-08-01T02:26:25;9.95;;;4.40;;
17773;SDS011;9011;33.236;-97.118;2023-08-01T02:28:56;7.85;;;4.82;;
17773;SDS011;9011;33.236;-97.118;2023-08-01T02:31:24;7.88;;;4.07;;
17773;SDS011;9011;33.236;-97.118;2023-08-01T02:33:53;7.72;;;4.03;;
17773;SDS011;9011;33.236;-97.118;2023-08-01T02:36:22;7.07;;;4.15;;
17773;SDS011;9011;33.236;-97.118;2023-08-01T02:38:50;10.05;;;4.70;;
17773;SDS011;9011;33.236;-97.118;2023-08-01T02:41:19;11.05;;;5.03;;
17773;SDS011;9011;33.236;-97.118;2023-08-01T02:43:47;6.30;;;4.70;;
17773;SDS011;9011;33.236;-97.118;2023-08-01T02:46:17;6.80;;;5.28;;
17773;SDS011;9011;33.236;-97.118;2023-08-01T02:48:45;9.18;;;5.60;;
17773;SDS011;9011;33.236;-97.118;2023-08-01T02:51:15;12.73;;;6.03;;
17773;SDS011;9011;33.236;-97.118;2023-08-01T02:53:44;8.80;;;6.35;;
17773;SDS011;9011;33.236;-97.118;2023-08-01T02:56:12;11.15;;;7.18;;
17773;SDS011;9011;33.236;-97.118;2023-08-01T02:58:40;10.23;;;6.68;;
17773;SDS011;9011;33.236;-97.118;2023-08-01T03:01:09;11.65;;;7.43;;
17773;SDS011;9011;33.236;-97.118;2023-08-01T03:03:40;11.00;;;8.20;;
17773;SDS011;9011;33.236;-97.118;2023-08-01T03:06:09;9.07;;;7.38;;
17773;SDS011;9011;33.236;-97.118;2023-08-01T03:11:31;13.20;;;9.05;;
17773;SDS011;9011;33.236;-97.118;2023-08-01T03:17:28;12.73;;;8.18;;
17773;SDS011;9011;33.236;-97.118;2023-08-01T03:19:58;12.32;;;8.05;;
17773;SDS011;9011;33.236;-97.118;2023-08-01T03:22:31;10.32;;;7.57;;
17773;SDS011;9011;33.236;-97.118;2023-08-01T03:25:00;9.02;;;7.05;;
17773;SDS011;9011;33.236;-97.118;2023-08-01T03:27:45;11.40;;;8.93;;
17773;SDS011;9011;33.236;-97.118;2023-08-01T03:30:26;12.52;;;8.30;;
17773;SDS011;9011;33.236;-97.118;2023-08-01T03:35:51;10.20;;;8.38;;
17773;SDS011;9011;33.236;-97.118;2023-08-01T03:38:19;12.50;;;9.13;;
17773;SDS011;9011;33.236;-97.118;2023-08-01T03:41:05;9.68;;;8.70;;
17773;SDS011;9011;33.236;-97.118;2023-08-01T03:49:27;9.98;;;8.48;;
17773;SDS011;9011;33.236;-97.118;2023-08-01T03:51:58;11.23;;;8.35;;
17773;SDS011;9011;33.236;-97.118;2023-08-01T03:54:38;12.23;;;9.98;;
17773;SDS011;9011;33.236;-97.118;2023-08-01T03:57:10;13.18;;;9.05;;
17773;SDS011;9011;33.236;-97.118;2023-08-01T03:59:40;10.90;;;9.00;;
17773;SDS011;9011;33.236;-97.118;2023-08-01T04:02:10;12.95;;;9.38;;
17773;SDS011;9011;33.236;-97.118;2023-08-01T04:04:39;13.40;;;8.63;;
17773;SDS011;9011;33.236;-97.118;2023-08-01T04:07:17;12.57;;;9.27;;
17773;SDS011;9011;33.236;-97.118;2023-08-01T04:09:46;11.95;;;9.13;;
17773;SDS011;9011;33.236;-97.118;2023-08-01T04:12:16;12.10;;;8.80;;
17773;SDS011;9011;33.236;-97.118;2023-08-01T04:14:45;9.90;;;8.90;;
17773;SDS011;9011;33.236;-97.118;2023-08-01T04:17:15;10.73;;;9.10;;
17773;SDS011;9011;33.236;-97.118;2023-08-01T04:19:44;11.00;;;9.18;;
17773;SDS011;9011;33.236;-97.118;2023-08-01T04:22:20;14.13;;;9.23;;
17773;SDS011;9011;33.236;-97.118;2023-08-01T04:24:56;11.38;;;9.20;;
17773;SDS011;9011;33.236;-97.118;2023-08-01T04:27:31;11.35;;;9.07;;
17773;SDS011;9011;33.236;-97.118;2023-08-01T04:30:04;12.10;;;9.27;;
17773;SDS011;9011;33.236;-97.118;2023-08-01T04:32:36;10.68;;;8.80;;
17773;SDS011;9011;33.236;-97.118;2023-08-01T04:35:12;9.07;;;8.27;;
17773;SDS011;9011;33.236;-97.118;2023-08-01T04:37:43;11.02;;;8.70;;
17773;SDS011;9011;33.236;-97.118;2023-08-01T04:40:13;11.93;;;8.25;;
17773;SDS011;9011;33.236;-97.118;2023-08-01T04:42:42;10.27;;;7.72;;
17773;SDS011;9011;33.236;-97.118;2023-08-01T04:45:17;9.55;;;7.93;;
17773;SDS011;9011;33.236;-97.118;2023-08-01T04:47:53;9.07;;;8.18;;
17773;SDS011;9011;33.236;-97.118;2023-08-01T04:51:04;10.80;;;7.93;;
17773;SDS011;9011;33.236;-97.118;2023-08-01T05:00:14;13.05;;;8.20;;
17773;SDS011;9011;33.236;-97.118;2023-08-01T05:02:51;9.45;;;8.40;;
17773;SDS011;9011;33.236;-97.118;2023-08-01T05:08:34;11.18;;;8.05;;
17773;SDS011;9011;33.236;-97.118;2023-08-01T05:11:04;11.25;;;7.93;;
17773;SDS011;9011;33.236;-97.118;2023-08-01T05:13:34;10.88;;;7.60;;
17773;SDS011;9011;33.236;-97.118;2023-08-01T05:16:07;10.10;;;7.88;;
17773;SDS011;9011;33.236;-97.118;2023-08-01T05:18:39;11.70;;;8.10;;
17773;SDS011;9011;33.236;-97.118;2023-08-01T05:21:18;10.15;;;8.00;;
17773;SDS011;9011;33.236;-97.118;2023-08-01T05:23:48;8.27;;;7.40;;
17773;SDS011;9011;33.236;-97.118;2023-08-01T05:26:17;11.05;;;8.43;;
17773;SDS011;9011;33.236;-97.118;2023-08-01T05:28:47;10.35;;;8.43;;
17773;SDS011;9011;33.236;-97.118;2023-08-01T05:31:20;12.75;;;7.93;;
17773;SDS011;9011;33.236;-97.118;2023-08-01T05:33:51;11.85;;;7.72;;
17773;SDS011;9011;33.236;-97.118;2023-08-01T05:36:23;10.13;;;8.50;;
17773;SDS011;9011;33.236;-97.118;2023-08-01T05:39:00;10.68;;;8.57;;
17773;SDS011;9011;33.236;-97.118;2023-08-01T05:41:31;11.45;;;8.20;;
17773;SDS011;9011;33.236;-97.118;2023-08-01T05:44:09;10.77;;;8.65;;
17773;SDS011;9011;33.236;-97.118;2023-08-01T05:46:44;11.40;;;9.18;;
17773;SDS011;9011;33.236;-97.118;2023-08-01T05:49:13;12.43;;;8.73;;
17773;SDS011;9011;33.236;-97.118;2023-08-01T05:51:44;11.65;;;9.45;;
17773;SDS011;9011;33.236;-97.118;2023-08-01T05:54:16;13.32;;;8.98;;
17773;SDS011;9011;33.236;-97.118;2023-08-01T05:56:48;12.13;;;8.73;;
17773;SDS011;9011;33.236;-97.118;2023-08-01T05:59:20;13.13;;;9.82;;
17773;SDS011;9011;33.236;-97.118;2023-08-01T06:01:54;11.48;;;8.93;;
17773;SDS011;9011;33.236;-97.118;2023-08-01T06:04:31;12.60;;;8.88;;
17773;SDS011;9011;33.236;-97.118;2023-08-01T06:07:07;11.45;;;8.52;;
17773;SDS011;9011;33.236;-97.118;2023-08-01T06:09:42;10.85;;;9.18;;
17773;SDS011;9011;33.236;-97.118;2023-08-01T06:12:15;9.68;;;7.97;;
17773;SDS011;9011;33.236;-97.118;2023-08-01T06:18:19;13.75;;;9.18;;
17773;SDS011;9011;33.236;-97.118;2023-08-01T06:20:48;11.52;;;9.70;;
17773;SDS011;9011;33.236;-97.118;2023-08-01T06:26:52;9.95;;;8.95;;
17773;SDS011;9011;33.236;-97.118;2023-08-01T06:29:30;13.57;;;9.00;;
17773;SDS011;9011;33.236;-97.118;2023-08-01T06:32:04;12.73;;;9.43;;
17773;SDS011;9011;33.236;-97.118;2023-08-01T06:35:05;11.75;;;9.40;;
17773;SDS011;9011;33.236;-97.118;2023-08-01T06:37:38;11.00;;;8.48;;
17773;SDS011;9011;33.236;-97.118;2023-08-01T06:40:07;9.90;;;8.90;;
17773;SDS011;9011;33.236;-97.118;2023-08-01T06:42:45;10.05;;;8.45;;
17773;SDS011;9011;33.236;-97.118;2023-08-01T06:45:15;13.68;;;9.63;;
17773;SDS011;9011;33.236;-97.118;2023-08-01T06:47:46;10.10;;;8.85;;
17773;SDS011;9011;33.236;-97.118;2023-08-01T06:50:25;12.00;;;8.38;;
17773;SDS011;9011;33.236;-97.118;2023-08-01T06:54:43;10.93;;;8.98;;
17773;SDS011;9011;33.236;-97.118;2023-08-01T07:03:04;12.90;;;9.38;;
17773;SDS011;9011;33.236;-97.118;2023-08-01T07:05:39;10.48;;;9.43;;
17773;SDS011;9011;33.236;-97.118;2023-08-01T07:08:13;10.13;;;8.35;;
17773;SDS011;9011;33.236;-97.118;2023-08-01T07:10:45;10.55;;;8.15;;
17773;SDS011;9011;33.236;-97.118;2023-08-01T07:36:36;12.25;;;9.23;;
17773;SDS011;9011;33.236;-97.118;2023-08-01T07:39:29;10.57;;;8.90;;
17773;SDS011;9011;33.236;-97.118;2023-08-01T07:42:10;13.23;;;8.73;;
17773;SDS011;9011;33.236;-97.118;2023-08-01T07:44:50;11.00;;;9.18;;
17773;SDS011;9011;33.236;-97.118;2023-08-01T07:47:23;11.10;;;8.27;;
17773;SDS011;9011;33.236;-97.118;2023-08-01T07:50:13;11.18;;;9.38;;
17773;SDS011;9011;33.236;-97.118;2023-08-01T07:55:41;12.55;;;9.13;;
17773;SDS011;9011;33.236;-97.118;2023-08-01T07:58:14;14.00;;;9.60;;
17773;SDS011;9011;33.236;-97.118;2023-08-01T08:01:11;11.02;;;8.77;;
17773;SDS011;9011;33.236;-97.118;2023-08-01T08:04:03;12.75;;;9.10;;
17773;SDS011;9011;33.236;-97.118;2023-08-01T08:06:34;13.60;;;9.07;;
17773;SDS011;9011;33.236;-97.118;2023-08-01T08:09:09;11.63;;;9.68;;
17773;SDS011;9011;33.236;-97.118;2023-08-01T08:11:43;10.55;;;8.57;;
17773;SDS011;9011;33.236;-97.118;2023-08-01T08:14:42;10.38;;;9.00;;
17773;SDS011;9011;33.236;-97.118;2023-08-01T08:17:13;11.43;;;9.30;;
17773;SDS011;9011;33.236;-97.118;2023-08-01T08:19:44;13.95;;;8.48;;
17773;SDS011;9011;33.236;-97.118;2023-08-01T08:22:31;12.20;;;9.60;;
17773;SDS011;9011;33.236;-97.118;2023-08-01T08:25:01;13.05;;;9.13;;
17773;SDS011;9011;33.236;-97.118;2023-08-01T08:27:30;13.40;;;9.57;;
17773;SDS011;9011;33.236;-97.118;2023-08-01T08:30:03;11.18;;;8.88;;
17773;SDS011;9011;33.236;-97.118;2023-08-01T08:32:40;11.23;;;8.90;;
17773;SDS011;9011;33.236;-97.118;2023-08-01T08:35:16;10.80;;;9.02;;
17773;SDS011;9011;33.236;-97.118;2023-08-01T08:37:45;12.48;;;9.13;;
17773;SDS011;9011;33.236;-97.118;2023-08-01T08:40:15;14.10;;;10.20;;
17773;SDS011;9011;33.236;-97.118;2023-08-01T08:42:44;11.80;;;9.68;;
17773;SDS011;9011;33.236;-97.118;2023-08-01T08:45:17;11.60;;;10.25;;
17773;SDS011;9011;33.236;-97.118;2023-08-01T08:47:54;14.07;;;8.98;;
17773;SDS011;9011;33.236;-97.118;2023-08-01T08:50:27;11.60;;;9.15;;
17773;SDS011;9011;33.236;-97.118;2023-08-01T08:52:59;10.68;;;9.52;;
17773;SDS011;9011;33.236;-97.118;2023-08-01T08:55:46;13.52;;;9.63;;
17773;SDS011;9011;33.236;-97.118;2023-08-01T08:58:15;9.82;;;8.82;;
17773;SDS011;9011;33.236;-97.118;2023-08-01T09:00:47;11.88;;;8.95;;
17773;SDS011;9011;33.236;-97.118;2023-08-01T09:03:26;12.43;;;10.20;;
17773;SDS011;9011;33.236;-97.118;2023-08-01T09:06:00;12.60;;;9.02;;
17773;SDS011;9011;33.236;-97.118;2023-08-01T09:08:37;11.23;;;9.88;;
17773;SDS011;9011;33.236;-97.118;2023-08-01T09:11:16;10.82;;;9.70;;
17773;SDS011;9011;33.236;-97.118;2023-08-01T09:13:50;10.57;;;9.52;;
17773;SDS011;9011;33.236;-97.118;2023-08-01T09:16:19;11.25;;;9.90;;
17773;SDS011;9011;33.236;-97.118;2023-08-01T09:18:49;12.25;;;9.55;;
17773;SDS011;9011;33.236;-97.118;2023-08-01T09:21:18;12.80;;;9.65;;
17773;SDS011;9011;33.236;-97.118;2023-08-01T09:23:47;11.70;;;10.43;;
17773;SDS011;9011;33.236;-97.118;2023-08-01T09:26:25;11.32;;;10.13;;
17773;SDS011;9011;33.236;-97.118;2023-08-01T09:29:02;14.70;;;8.88;;
17773;SDS011;9011;33.236;-97.118;2023-08-01T09:31:57;10.60;;;9.52;;
17773;SDS011;9011;33.236;-97.118;2023-08-01T09:34:26;12.20;;;9.57;;
17773;SDS011;9011;33.236;-97.118;2023-08-01T09:37:00;10.73;;;9.63;;
17773;SDS011;9011;33.236;-97.118;2023-08-01T09:39:31;11.60;;;10.25;;
17773;SDS011;9011;33.236;-97.118;2023-08-01T09:42:07;12.05;;;10.65;;
17773;SDS011;9011;33.236;-97.118;2023-08-01T09:44:44;11.23;;;9.60;;
17773;SDS011;9011;33.236;-97.118;2023-08-01T09:47:13;13.07;;;9.50;;
17773;SDS011;9011;33.236;-97.118;2023-08-01T09:49:48;11.05;;;9.80;;
17773;SDS011;9011;33.236;-97.118;2023-08-01T09:52:26;11.52;;;9.60;;
17773;SDS011;9011;33.236;-97.118;2023-08-01T09:54:57;10.23;;;9.13;;
17773;SDS011;9011;33.236;-97.118;2023-08-01T09:57:29;11.10;;;9.88;;
17773;SDS011;9011;33.236;-97.118;2023-08-01T10:03:06;23.58;;;11.32;;
17773;SDS011;9011;33.236;-97.118;2023-08-01T10:05:47;11.60;;;9.73;;
17773;SDS011;9011;33.236;-97.118;2023-08-01T10:08:26;12.73;;;10.30;;
17773;SDS011;9011;33.236;-97.118;2023-08-01T10:10:58;12.77;;;9.93;;
17773;SDS011;9011;33.236;-97.118;2023-08-01T10:13:41;16.98;;;10.07;;
17773;SDS011;9011;33.236;-97.118;2023-08-01T10:16:15;11.65;;;9.82;;
17773;SDS011;9011;33.236;-97.118;2023-08-01T10:18:44;12.02;;;10.50;;
17773;SDS011;9011;33.236;-97.118;2023-08-01T10:21:13;11.27;;;10.10;;
17773;SDS011;9011;33.236;-97.118;2023-08-01T10:23:43;12.98;;;10.05;;
17773;SDS011;9011;33.236;-97.118;2023-08-01T10:26:13;11.13;;;9.55;;
17773;SDS011;9011;33.236;-97.118;2023-08-01T10:28:49;14.38;;;10.60;;
17773;SDS011;9011;33.236;-97.118;2023-08-01T10:31:19;10.98;;;9.88;;
17773;SDS011;9011;33.236;-97.118;2023-08-01T10:33:48;11.10;;;10.07;;
17773;SDS011;9011;33.236;-97.118;2023-08-01T10:36:18;10.93;;;9.88;;
17773;SDS011;9011;33.236;-97.118;2023-08-01T10:38:48;11.95;;;10.68;;
17773;SDS011;9011;33.236;-97.118;2023-08-01T10:41:18;14.10;;;10.02;;
17773;SDS011;9011;33.236;-97.118;2023-08-01T10:43:48;12.27;;;10.80;;
17773;SDS011;9011;33.236;-97.118;2023-08-01T10:46:16;13.30;;;10.43;;
17773;SDS011;9011;33.236;-97.118;2023-08-01T10:48:48;12.70;;;10.90;;
17773;SDS011;9011;33.236;-97.118;2023-08-01T10:51:17;11.85;;;10.00;;
17773;SDS011;9011;33.236;-97.118;2023-08-01T10:53:45;12.93;;;10.55;;
17773;SDS011;9011;33.236;-97.118;2023-08-01T10:56:17;15.65;;;10.70;;
17773;SDS011;9011;33.236;-97.118;2023-08-01T10:58:48;15.15;;;10.48;;
17773;SDS011;9011;33.236;-97.118;2023-08-01T11:01:16;13.05;;;11.02;;
17773;SDS011;9011;33.236;-97.118;2023-08-01T11:03:45;12.40;;;11.18;;
17773;SDS011;9011;33.236;-97.118;2023-08-01T11:06:13;11.73;;;10.52;;
17773;SDS011;9011;33.236;-97.118;2023-08-01T11:08:41;13.85;;;10.80;;
17773;SDS011;9011;33.236;-97.118;2023-08-01T11:11:11;13.93;;;11.23;;
17773;SDS011;9011;33.236;-97.118;2023-08-01T11:13:41;12.75;;;10.52;;
17773;SDS011;9011;33.236;-97.118;2023-08-01T11:16:23;11.82;;;10.52;;
17773;SDS011;9011;33.236;-97.118;2023-08-01T11:18:52;14.90;;;10.50;;
17773;SDS011;9011;33.236;-97.118;2023-08-01T11:21:25;13.00;;;11.07;;
17773;SDS011;9011;33.236;-97.118;2023-08-01T11:23:54;12.32;;;11.07;;
17773;SDS011;9011;33.236;-97.118;2023-08-01T11:26:24;12.73;;;10.75;;
17773;SDS011;9011;33.236;-97.118;2023-08-01T11:28:54;11.98;;;10.77;;
17773;SDS011;9011;33.236;-97.118;2023-08-01T11:31:22;12.00;;;10.65;;
17773;SDS011;9011;33.236;-97.118;2023-08-01T11:33:56;18.40;;;11.50;;
17773;SDS011;9011;33.236;-97.118;2023-08-01T11:36:25;12.77;;;10.57;;
17773;SDS011;9011;33.236;-97.118;2023-08-01T11:38:55;12.75;;;9.80;;
17773;SDS011;9011;33.236;-97.118;2023-08-01T11:41:26;15.30;;;11.38;;
17773;SDS011;9011;33.236;-97.118;2023-08-01T11:43:56;13.25;;;10.27;;
17773;SDS011;9011;33.236;-97.118;2023-08-01T11:46:33;12.00;;;10.88;;
17773;SDS011;9011;33.236;-97.118;2023-08-01T11:49:02;14.48;;;10.50;;
17773;SDS011;9011;33.236;-97.118;2023-08-01T11:51:31;13.27;;;11.13;;
17773;SDS011;9011;33.236;-97.118;2023-08-01T11:54:07;13.88;;;12.20;;
17773;SDS011;9011;33.236;-97.118;2023-08-01T11:56:36;15.90;;;11.77;;
17773;SDS011;9011;33.236;-97.118;2023-08-01T11:59:10;15.38;;;11.10;;
17773;SDS011;9011;33.236;-97.118;2023-08-01T12:01:39;17.70;;;11.90;;
17773;SDS011;9011;33.236;-97.118;2023-08-01T12:04:08;14.77;;;10.65;;
17773;SDS011;9011;33.236;-97.118;2023-08-01T12:06:37;13.93;;;10.82;;
17773;SDS011;9011;33.236;-97.118;2023-08-01T12:09:06;13.18;;;11.13;;
17773;SDS011;9011;33.236;-97.118;2023-08-01T12:11:36;12.88;;;11.48;;
17773;SDS011;9011;33.236;-97.118;2023-08-01T12:14:06;13.10;;;11.20;;
17773;SDS011;9011;33.236;-97.118;2023-08-01T12:16:38;16.58;;;11.10;;
17773;SDS011;9011;33.236;-97.118;2023-08-01T12:19:08;16.95;;;11.27;;
17773;SDS011;9011;33.236;-97.118;2023-08-01T12:21:36;14.32;;;10.45;;
17773;SDS011;9011;33.236;-97.118;2023-08-01T12:24:05;13.27;;;11.88;;
17773;SDS011;9011;33.236;-97.118;2023-08-01T12:26:33;13.70;;;11.35;;
17773;SDS011;9011;33.236;-97.118;2023-08-01T12:29:01;12.18;;;11.05;;
17773;SDS011;9011;33.236;-97.118;2023-08-01T12:31:30;12.18;;;10.60;;
17773;SDS011;9011;33.236;-97.118;2023-08-01T12:34:00;13.98;;;10.98;;
17773;SDS011;9011;33.236;-97.118;2023-08-01T12:36:29;14.20;;;11.80;;
17773;SDS011;9011;33.236;-97.118;2023-08-01T12:38:57;13.77;;;11.15;;
17773;SDS011;9011;33.236;-97.118;2023-08-01T12:41:25;11.85;;;10.30;;
17773;SDS011;9011;33.236;-97.118;2023-08-01T12:43:53;12.38;;;10.52;;
17773;SDS011;9011;33.236;-97.118;2023-08-01T12:46:22;12.73;;;10.70;;
17773;SDS011;9011;33.236;-97.118;2023-08-01T12:48:50;12.30;;;10.93;;
17773;SDS011;9011;33.236;-97.118;2023-08-01T12:51:20;14.30;;;10.88;;
17773;SDS011;9011;33.236;-97.118;2023-08-01T12:53:48;14.00;;;10.93;;
17773;SDS011;9011;33.236;-97.118;2023-08-01T12:56:17;13.73;;;10.82;;
17773;SDS011;9011;33.236;-97.118;2023-08-01T12:58:45;14.13;;;11.02;;
17773;SDS011;9011;33.236;-97.118;2023-08-01T13:01:13;14.43;;;11.05;;
17773;SDS011;9011;33.236;-97.118;2023-08-01T13:03:42;12.75;;;11.52;;
17773;SDS011;9011;33.236;-97.118;2023-08-01T13:06:10;12.45;;;11.15;;
17773;SDS011;9011;33.236;-97.118;2023-08-01T13:08:40;13.07;;;11.50;;
17773;SDS011;9011;33.236;-97.118;2023-08-01T13:11:09;14.52;;;10.80;;
17773;SDS011;9011;33.236;-97.118;2023-08-01T13:13:39;15.10;;;11.10;;
17773;SDS011;9011;33.236;-97.118;2023-08-01T13:16:08;13.48;;;10.98;;
17773;SDS011;9011;33.236;-97.118;2023-08-01T13:18:36;13.63;;;11.48;;
17773;SDS011;9011;33.236;-97.118;2023-08-01T13:21:09;14.23;;;10.88;;
17773;SDS011;9011;33.236;-97.118;2023-08-01T13:23:37;14.98;;;11.35;;
17773;SDS011;9011;33.236;-97.118;2023-08-01T13:26:07;14.13;;;11.15;;
17773;SDS011;9011;33.236;-97.118;2023-08-01T13:28:36;15.80;;;11.88;;
17773;SDS011;9011;33.236;-97.118;2023-08-01T13:31:04;17.60;;;12.20;;
17773;SDS011;9011;33.236;-97.118;2023-08-01T13:33:32;14.52;;;11.45;;
17773;SDS011;9011;33.236;-97.118;2023-08-01T13:36:01;15.35;;;11.18;;
17773;SDS011;9011;33.236;-97.118;2023-08-01T13:38:29;18.30;;;10.85;;
17773;SDS011;9011;33.236;-97.118;2023-08-01T13:40:58;15.30;;;10.80;;
17773;SDS011;9011;33.236;-97.118;2023-08-01T13:43:28;14.15;;;11.15;;
17773;SDS011;9011;33.236;-97.118;2023-08-01T13:45:57;18.50;;;12.48;;
17773;SDS011;9011;33.236;-97.118;2023-08-01T13:48:25;14.77;;;11.43;;
17773;SDS011;9011;33.236;-97.118;2023-08-01T13:50:57;13.57;;;10.68;;
17773;SDS011;9011;33.236;-97.118;2023-08-01T13:53:25;15.77;;;11.43;;
17773;SDS011;9011;33.236;-97.118;2023-08-01T13:55:54;15.35;;;11.85;;
17773;SDS011;9011;33.236;-97.118;2023-08-01T13:58:22;12.88;;;10.50;;
17773;SDS011;9011;33.236;-97.118;2023-08-01T14:00:52;18.60;;;10.93;;
17773;SDS011;9011;33.236;-97.118;2023-08-01T14:03:20;17.90;;;11.25;;
17773;SDS011;9011;33.236;-97.118;2023-08-01T14:05:49;18.63;;;11.75;;
17773;SDS011;9011;33.236;-97.118;2023-08-01T14:08:17;17.50;;;10.57;;
17773;SDS011;9011;33.236;-97.118;2023-08-01T14:10:45;15.65;;;10.85;;
17773;SDS011;9011;33.236;-97.118;2023-08-01T14:13:14;16.77;;;10.73;;
17773;SDS011;9011;33.236;-97.118;2023-08-01T14:15:42;12.43;;;10.35;;
17773;SDS011;9011;33.236;-97.118;2023-08-01T14:18:12;17.20;;;10.48;;
17773;SDS011;9011;33.236;-97.118;2023-08-01T14:20:40;20.48;;;11.23;;
17773;SDS011;9011;33.236;-97.118;2023-08-01T14:23:09;13.75;;;9.75;;
17773;SDS011;9011;33.236;-97.118;2023-08-01T14:25:37;12.85;;;10.63;;
17773;SDS011;9011;33.236;-97.118;2023-08-01T14:28:05;14.30;;;10.73;;
17773;SDS011;9011;33.236;-97.118;2023-08-01T14:30:34;15.55;;;11.18;;
17773;SDS011;9011;33.236;-97.118;2023-08-01T14:33:02;14.70;;;10.15;;
17773;SDS011;9011;33.236;-97.118;2023-08-01T14:35:33;10.95;;;9.73;;
17773;SDS011;9011;33.236;-97.118;2023-08-01T14:38:02;12.63;;;10.30;;
17773;SDS011;9011;33.236;-97.118;2023-08-01T14:40:31;14.48;;;10.20;;
17773;SDS011;9011;33.236;-97.118;2023-08-01T14:43:04;13.10;;;9.80;;
17773;SDS011;9011;33.236;-97.118;2023-08-01T14:45:36;11.32;;;9.02;;
17773;SDS011;9011;33.236;-97.118;2023-08-01T14:48:05;11.80;;;10.23;;
17773;SDS011;9011;33.236;-97.118;2023-08-01T14:50:36;13.95;;;10.35;;
17773;SDS011;9011;33.236;-97.118;2023-08-01T14:53:05;13.88;;;10.38;;
17773;SDS011;9011;33.236;-97.118;2023-08-01T14:55:33;12.40;;;10.07;;
17773;SDS011;9011;33.236;-97.118;2023-08-01T14:58:02;13.68;;;10.57;;
17773;SDS011;9011;33.236;-97.118;2023-08-01T15:00:34;12.10;;;10.85;;
17773;SDS011;9011;33.236;-97.118;2023-08-01T15:03:02;13.65;;;10.05;;
17773;SDS011;9011;33.236;-97.118;2023-08-01T15:05:31;10.95;;;8.93;;
17773;SDS011;9011;33.236;-97.118;2023-08-01T15:08:01;13.02;;;10.43;;
17773;SDS011;9011;33.236;-97.118;2023-08-01T15:10:31;14.88;;;11.45;;
17773;SDS011;9011;33.236;-97.118;2023-08-01T15:12:59;12.05;;;10.30;;
17773;SDS011;9011;33.236;-97.118;2023-08-01T15:15:27;17.50;;;9.90;;
17773;SDS011;9011;33.236;-97.118;2023-08-01T15:17:56;12.90;;;10.10;;
17773;SDS011;9011;33.236;-97.118;2023-08-01T15:20:24;12.23;;;10.63;;
17773;SDS011;9011;33.236;-97.118;2023-08-01T15:22:52;12.48;;;9.07;;
17773;SDS011;9011;33.236;-97.118;2023-08-01T15:25:22;310.05;;;30.48;;
17773;SDS011;9011;33.236;-97.118;2023-08-01T15:27:51;111.95;;;16.05;;
17773;SDS011;9011;33.236;-97.118;2023-08-01T15:30:19;13.95;;;9.65;;
17773;SDS011;9011;33.236;-97.118;2023-08-01T15:32:47;11.50;;;8.57;;
17773;SDS011;9011;33.236;-97.118;2023-08-01T15:35:16;15.43;;;9.15;;
17773;SDS011;9011;33.236;-97.118;2023-08-01T15:37:44;10.60;;;8.50;;
17773;SDS011;9011;33.236;-97.118;2023-08-01T15:40:12;20.13;;;8.68;;
17773;SDS011;9011;33.236;-97.118;2023-08-01T15:42:43;17.45;;;9.25;;
17773;SDS011;9011;33.236;-97.118;2023-08-01T15:45:11;16.17;;;8.80;;
17773;SDS011;9011;33.236;-97.118;2023-08-01T15:47:40;1.45;;;1.35;;
17773;SDS011;9011;33.236;-97.118;2023-08-01T15:50:08;1.38;;;1.27;;
17773;SDS011;9011;33.236;-97.118;2023-08-01T15:52:37;1.02;;;0.93;;